createdAt,value
2022-12-26T00:02:20.145Z,10.93
2022-12-26T00:04:49.763Z,10.88
2022-12-26T00:07:18.680Z,10.85
2022-12-26T00:09:44.802Z,10.86
2022-12-26T00:12:10.888Z,10.87
2022-12-26T00:14:38.459Z,10.85
2022-12-26T00:17:04.516Z,10.84
2022-12-26T00:19:30.642Z,10.86
2022-12-26T00:21:56.848Z,10.78
2022-12-26T00:24:22.880Z,10.79
2022-12-26T00:26:48.914Z,10.82
2022-12-26T00:29:14.995Z,10.31
2022-12-26T00:31:41.161Z,10.88
2022-12-26T00:34:07.244Z,10.93
2022-12-26T00:36:33.936Z,11.01
2022-12-26T00:39:01.298Z,10.96
2022-12-26T00:41:27.909Z,10.97
2022-12-26T00:43:55.315Z,10.55
2022-12-26T00:46:21.402Z,10.97
2022-12-26T00:48:47.540Z,11.01
2022-12-26T00:51:14.118Z,10.96
2022-12-26T00:53:40.430Z,9.57
2022-12-26T00:56:07.471Z,10.97
2022-12-26T00:58:33.615Z,10.17
2022-12-26T01:01:06.790Z,11.04
2022-12-26T01:03:33.124Z,11.10
2022-12-26T01:06:01.898Z,6.80
2022-12-26T01:08:27.980Z,10.92
2022-12-26T01:10:54.021Z,11.09
2022-12-26T01:13:20.600Z,10.74
2022-12-26T01:15:49.015Z,11.10
2022-12-26T01:18:15.223Z,11.08
2022-12-26T01:20:41.302Z,11.08
2022-12-26T01:23:07.378Z,11.15
2022-12-26T01:25:33.480Z,10.69
2022-12-26T01:27:59.608Z,11.11
2022-12-26T01:30:25.653Z,11.09
2022-12-26T01:32:51.696Z,11.10
2022-12-26T01:35:17.838Z,11.15
2022-12-26T01:37:43.898Z,11.14
2022-12-26T01:40:11.435Z,11.22
2022-12-26T01:42:38.801Z,11.19
2022-12-26T01:45:23.772Z,11.20
2022-12-26T01:48:03.584Z,11.23
2022-12-26T01:50:29.678Z,11.25
2022-12-26T01:52:58.135Z,10.40
2022-12-26T01:55:24.877Z,11.19
2022-12-26T01:57:57.624Z,11.23
2022-12-26T02:00:23.721Z,11.18
2022-12-26T02:03:08.571Z,11.21
2022-12-26T02:05:35.018Z,11.19
2022-12-26T02:08:03.984Z,10.58
2022-12-26T02:10:36.112Z,11.19
2022-12-26T02:13:02.316Z,11.16
2022-12-26T02:15:28.356Z,11.25
2022-12-26T02:17:54.375Z,11.25
2022-12-26T02:20:26.087Z,10.24
2022-12-26T02:23:10.906Z,11.27
2022-12-26T02:26:12.503Z,11.20
2022-12-26T02:28:50.259Z,11.16
2022-12-26T02:31:46.320Z,10.77
2022-12-26T02:34:12.336Z,11.07
2022-12-26T02:36:56.626Z,11.03
2022-12-26T02:39:53.923Z,11.14
2022-12-26T02:42:35.865Z,11.18
2022-12-26T02:45:31.561Z,10.48
2022-12-26T02:48:06.175Z,9.72
2022-12-26T02:51:15.255Z,11.14
2022-12-26T02:54:09.324Z,11.11
2022-12-26T02:56:57.225Z,11.11
2022-12-26T02:59:55.716Z,11.09
2022-12-26T03:03:02.549Z,11.12
2022-12-26T03:05:52.604Z,11.18
2022-12-26T03:08:42.971Z,9.75
2022-12-26T03:11:28.234Z,11.07
2022-12-26T03:13:55.532Z,9.80
2022-12-26T03:16:41.399Z,11.11
2022-12-26T03:19:10.504Z,11.15
2022-12-26T03:21:41.089Z,11.12
2022-12-26T03:24:09.815Z,11.12
2022-12-26T03:26:41.934Z,11.09
2022-12-26T03:29:38.040Z,11.12
2022-12-26T03:32:10.100Z,11.09
2022-12-26T03:34:40.608Z,11.10
2022-12-26T03:37:47.350Z,11.18
2022-12-26T03:40:43.036Z,11.06
2022-12-26T03:43:42.792Z,11.09
2022-12-26T03:46:38.236Z,10.49
2022-12-26T03:49:27.176Z,11.00
2022-12-26T03:52:27.980Z,10.72
2022-12-26T03:55:41.495Z,11.11
2022-12-26T03:58:37.614Z,11.10
2022-12-26T04:01:26.811Z,11.14
2022-12-26T04:04:12.551Z,10.82
2022-12-26T04:07:11.434Z,11.07
2022-12-26T04:10:01.595Z,11.05
2022-12-26T04:12:47.870Z,11.15
2022-12-26T04:16:12.192Z,11.09
2022-12-26T04:19:08.384Z,11.09
2022-12-26T04:22:02.314Z,11.07
2022-12-26T04:24:59.331Z,11.11
2022-12-26T04:27:46.956Z,11.18
2022-12-26T04:30:32.000Z,11.10
2022-12-26T04:33:24.730Z,11.25
2022-12-26T04:36:13.829Z,11.23
2022-12-26T04:39:06.329Z,11.22
2022-12-26T04:41:52.052Z,11.23
2022-12-26T04:44:18.602Z,11.21
2022-12-26T04:46:46.655Z,11.15
2022-12-26T04:49:33.847Z,11.15
2022-12-26T04:52:02.049Z,11.12
2022-12-26T04:54:28.254Z,11.14
2022-12-26T04:56:54.830Z,11.14
2022-12-26T04:59:21.951Z,11.22
2022-12-26T05:02:06.962Z,9.55
2022-12-26T05:04:51.754Z,11.18
2022-12-26T05:07:39.839Z,11.10
2022-12-26T05:10:07.875Z,11.11
2022-12-26T05:12:34.534Z,10.14
2022-12-26T05:15:00.668Z,11.01
2022-12-26T05:17:45.101Z,10.84
2022-12-26T05:20:50.376Z,11.06
2022-12-26T05:23:40.808Z,10.58
2022-12-26T05:26:33.831Z,11.10
2022-12-26T05:29:00.129Z,10.40
2022-12-26T05:31:31.123Z,7.32
2022-12-26T05:34:07.210Z,11.06
2022-12-26T05:36:37.160Z,11.02
2022-12-26T05:39:04.200Z,11.00
2022-12-26T05:41:30.281Z,11.01
2022-12-26T05:43:56.469Z,11.04
2022-12-26T05:46:22.656Z,10.80
2022-12-26T05:48:48.841Z,11.04
2022-12-26T05:51:14.968Z,10.67
2022-12-26T05:53:41.117Z,10.79
2022-12-26T05:56:10.792Z,10.46
2022-12-26T05:58:37.160Z,10.57
2022-12-26T06:01:15.243Z,10.98
2022-12-26T06:03:45.049Z,10.96
2022-12-26T06:06:11.122Z,7.39
2022-12-26T06:08:37.560Z,11.05
2022-12-26T06:11:08.321Z,11.09
2022-12-26T06:13:34.638Z,10.50
2022-12-26T06:16:08.585Z,11.09
2022-12-26T06:18:34.809Z,11.12
2022-12-26T06:21:09.403Z,11.11
2022-12-26T06:23:35.725Z,10.39
2022-12-26T06:26:02.418Z,11.02
2022-12-26T06:28:28.701Z,11.09
2022-12-26T06:31:02.123Z,11.08
2022-12-26T06:33:28.216Z,11.05
2022-12-26T06:35:54.256Z,11.08
2022-12-26T06:38:20.292Z,11.09
2022-12-26T06:40:46.385Z,11.03
2022-12-26T06:43:12.438Z,11.01
2022-12-26T06:45:38.516Z,10.82
2022-12-26T06:48:04.749Z,10.64
2022-12-26T06:50:30.818Z,11.05
2022-12-26T06:52:56.862Z,11.16
2022-12-26T06:55:22.988Z,11.15
2022-12-26T06:57:51.412Z,11.08
2022-12-26T07:00:17.655Z,11.10
2022-12-26T07:02:43.860Z,11.10
2022-12-26T07:05:10.019Z,11.11
2022-12-26T07:07:36.117Z,11.14
2022-12-26T07:10:02.252Z,11.09
2022-12-26T07:12:28.324Z,11.26
2022-12-26T07:14:59.651Z,11.34
2022-12-26T07:17:27.532Z,11.22
2022-12-26T07:20:08.075Z,11.25
2022-12-26T07:22:34.158Z,11.15
2022-12-26T07:25:00.269Z,11.08
2022-12-26T07:27:26.433Z,11.09
2022-12-26T07:29:52.540Z,10.90
2022-12-26T07:32:18.713Z,10.96
2022-12-26T07:34:44.800Z,10.01
2022-12-26T07:37:10.933Z,10.99
2022-12-26T07:39:37.103Z,10.93
2022-12-26T07:42:04.187Z,10.94
2022-12-26T07:44:31.831Z,11.10
2022-12-26T07:46:58.961Z,9.78
2022-12-26T07:49:25.445Z,11.11
2022-12-26T07:51:51.609Z,10.88
2022-12-26T07:54:18.273Z,11.04
2022-12-26T07:56:44.710Z,11.12
2022-12-26T07:59:15.320Z,11.14
2022-12-26T08:01:42.399Z,11.18
2022-12-26T08:04:10.274Z,10.59
2022-12-26T08:06:37.688Z,10.94
2022-12-26T08:09:04.561Z,11.22
2022-12-26T08:11:33.303Z,11.25
2022-12-26T08:13:59.666Z,11.23
2022-12-26T08:16:27.152Z,11.29
2022-12-26T08:18:53.246Z,11.30
2022-12-26T08:21:19.393Z,10.97
2022-12-26T08:23:47.560Z,11.04
2022-12-26T08:26:19.937Z,11.15
2022-12-26T08:28:46.351Z,11.09
2022-12-26T08:31:13.181Z,11.10
2022-12-26T08:33:40.275Z,11.02
2022-12-26T08:36:09.145Z,10.30
2022-12-26T08:38:36.097Z,11.15
2022-12-26T08:41:02.288Z,11.18
2022-12-26T08:46:15.253Z,11.21
2022-12-26T08:48:41.726Z,11.18
2022-12-26T08:51:10.930Z,11.16
2022-12-26T08:53:37.569Z,11.10
2022-12-26T08:56:05.919Z,11.24
2022-12-26T08:58:32.566Z,11.28
2022-12-26T09:01:06.740Z,11.29
2022-12-26T09:03:32.994Z,7.32
2022-12-26T09:06:05.587Z,11.17
2022-12-26T09:08:34.168Z,11.12
2022-12-26T09:11:10.387Z,10.99
2022-12-26T09:13:38.055Z,9.82
2022-12-26T09:16:21.687Z,10.98
2022-12-26T09:18:48.465Z,11.01
2022-12-26T09:21:15.496Z,10.04
2022-12-26T09:23:42.139Z,10.94
2022-12-26T09:26:13.965Z,10.93
2022-12-26T09:28:40.808Z,10.98
2022-12-26T09:31:13.072Z,11.05
2022-12-26T09:33:39.311Z,10.71
2022-12-26T09:36:14.051Z,10.88
2022-12-26T09:38:41.147Z,10.96
2022-12-26T09:41:16.249Z,11.02
2022-12-26T09:43:53.279Z,11.00
2022-12-26T09:46:33.412Z,11.03
2022-12-26T09:49:21.088Z,10.92
2022-12-26T09:51:50.067Z,10.98
2022-12-26T09:54:27.192Z,10.88
2022-12-26T09:57:02.308Z,10.94
2022-12-26T09:59:32.090Z,10.99
2022-12-26T10:01:58.263Z,10.84
2022-12-26T10:04:29.580Z,10.38
2022-12-26T10:06:56.459Z,10.93
2022-12-26T10:09:25.236Z,10.85
2022-12-26T10:12:03.465Z,10.91
2022-12-26T10:14:57.520Z,10.89
2022-12-26T10:17:40.253Z,11.01
2022-12-26T10:20:15.652Z,11.01
2022-12-26T10:23:03.316Z,11.04
2022-12-26T10:25:48.452Z,11.24
2022-12-26T10:28:29.764Z,9.92
2022-12-26T10:30:58.248Z,10.84
2022-12-26T10:33:46.146Z,10.99
2022-12-26T10:36:17.563Z,11.21
2022-12-26T10:38:45.444Z,11.01
2022-12-26T10:41:23.823Z,11.08
2022-12-26T10:43:49.990Z,10.55
2022-12-26T10:46:22.062Z,10.99
2022-12-26T10:48:48.185Z,10.96
2022-12-26T10:51:14.727Z,7.36
2022-12-26T10:53:45.139Z,11.10
2022-12-26T10:56:16.387Z,10.98
2022-12-26T10:58:44.816Z,11.08
2022-12-26T11:01:29.503Z,11.12
2022-12-26T11:03:58.158Z,9.11
2022-12-26T11:06:51.115Z,10.66
2022-12-26T11:09:39.859Z,10.58
2022-12-26T11:12:21.295Z,10.82
2022-12-26T11:14:47.595Z,10.57
2022-12-26T11:17:26.720Z,10.85
2022-12-26T11:20:14.555Z,10.82
2022-12-26T11:22:44.605Z,10.92
2022-12-26T11:25:12.112Z,11.15
2022-12-26T11:27:41.209Z,10.74
2022-12-26T11:30:13.692Z,11.05
2022-12-26T11:32:49.955Z,11.25
2022-12-26T11:35:21.824Z,11.11
2022-12-26T11:37:52.166Z,10.82
2022-12-26T11:40:26.958Z,10.74
2022-12-26T11:42:56.521Z,10.89
2022-12-26T11:45:26.047Z,10.84
2022-12-26T11:47:55.793Z,10.98
2022-12-26T11:50:25.659Z,10.60
2022-12-26T11:52:57.740Z,11.08
2022-12-26T11:55:24.165Z,11.28
2022-12-26T11:58:20.707Z,11.51
2022-12-26T12:00:49.769Z,11.38
2022-12-26T12:03:49.690Z,11.53
2022-12-26T12:06:31.274Z,11.53
2022-12-26T12:09:17.665Z,11.29
2022-12-26T12:12:02.438Z,11.20
2022-12-26T12:14:41.732Z,8.21
2022-12-26T12:17:21.324Z,10.45
2022-12-26T12:20:14.810Z,11.10
2022-12-26T12:22:53.047Z,8.61
2022-12-26T12:25:22.214Z,11.05
2022-12-26T12:27:58.064Z,11.04
2022-12-26T12:30:28.430Z,11.09
2022-12-26T12:33:06.637Z,11.08
2022-12-26T12:35:47.763Z,11.09
2022-12-26T12:38:25.768Z,11.05
2022-12-26T12:41:10.368Z,11.13
2022-12-26T12:44:14.016Z,11.15
2022-12-26T12:46:58.923Z,11.19
2022-12-26T12:50:02.519Z,11.09
2022-12-26T12:53:09.994Z,11.09
2022-12-26T12:55:54.919Z,11.06
2022-12-26T12:58:41.852Z,10.51
2022-12-26T13:01:13.227Z,11.16
2022-12-26T13:03:54.772Z,11.19
2022-12-26T13:06:40.175Z,11.07
2022-12-26T13:09:22.450Z,11.38
2022-12-26T13:11:52.252Z,11.31
2022-12-26T13:14:34.771Z,11.45
2022-12-26T13:17:05.529Z,10.80
2022-12-26T13:19:41.099Z,11.19
2022-12-26T13:22:16.395Z,11.27
2022-12-26T13:24:50.992Z,11.11
2022-12-26T13:27:29.763Z,11.23
2022-12-26T13:29:55.915Z,11.15
2022-12-26T13:32:22.707Z,11.28
2022-12-26T13:34:51.278Z,11.27
2022-12-26T13:37:39.517Z,11.25
2022-12-26T13:40:11.941Z,11.37
2022-12-26T13:43:05.035Z,11.22
2022-12-26T13:45:37.203Z,11.33
2022-12-26T13:48:15.278Z,11.27
2022-12-26T13:50:56.784Z,11.33
2022-12-26T13:53:25.708Z,11.08
2022-12-26T13:55:54.151Z,11.29
2022-12-26T13:58:42.096Z,11.26
2022-12-26T14:01:26.756Z,11.36
2022-12-26T14:04:02.034Z,11.35
2022-12-26T14:06:28.197Z,11.21
2022-12-26T14:09:05.681Z,11.29
2022-12-26T14:11:59.525Z,11.30
2022-12-26T14:14:47.142Z,11.33
2022-12-26T14:17:54.791Z,11.33
2022-12-26T14:20:23.965Z,11.35
2022-12-26T14:23:15.267Z,11.46
2022-12-26T14:25:50.362Z,11.39
2022-12-26T14:29:09.622Z,11.38
2022-12-26T14:31:54.307Z,11.20
2022-12-26T14:34:38.617Z,11.41
2022-12-26T14:37:35.866Z,11.36
2022-12-26T14:40:33.991Z,8.16
2022-12-26T14:43:13.036Z,11.40
2022-12-26T14:45:46.485Z,11.32
2022-12-26T14:48:15.305Z,11.39
2022-12-26T14:50:44.447Z,11.30
2022-12-26T14:53:16.722Z,11.10
2022-12-26T14:55:48.584Z,11.06
2022-12-26T14:58:20.515Z,10.93
2022-12-26T15:00:47.259Z,10.95
2022-12-26T15:03:26.741Z,10.89
2022-12-26T15:06:17.306Z,10.94
2022-12-26T15:09:02.160Z,11.02
2022-12-26T15:11:46.707Z,11.04
2022-12-26T15:14:19.437Z,10.86
2022-12-26T15:16:54.477Z,10.45
2022-12-26T15:19:44.781Z,10.54
2022-12-26T15:23:05.488Z,10.28
2022-12-26T15:25:46.334Z,10.33
2022-12-26T15:28:30.439Z,10.43
2022-12-26T15:31:24.013Z,10.41
2022-12-26T15:34:33.694Z,10.26
2022-12-26T15:37:14.003Z,10.13
2022-12-26T15:39:52.157Z,10.16
2022-12-26T15:42:47.507Z,9.77
2022-12-26T15:45:27.965Z,10.03
2022-12-26T15:48:06.507Z,10.25
2022-12-26T15:50:57.723Z,9.60
2022-12-26T15:53:45.229Z,9.79
2022-12-26T15:56:25.198Z,10.14
2022-12-26T15:58:57.420Z,10.20
2022-12-26T16:01:44.682Z,9.79
2022-12-26T16:04:25.848Z,10.21
2022-12-26T16:07:08.381Z,10.27
2022-12-26T16:09:44.737Z,10.16
2022-12-26T16:12:23.410Z,9.65
2022-12-26T16:14:58.333Z,9.85
2022-12-26T16:17:24.650Z,10.09
2022-12-26T16:19:51.792Z,8.28
2022-12-26T16:22:48.730Z,9.55
2022-12-26T16:25:16.747Z,10.25
2022-12-26T16:27:44.419Z,10.02
2022-12-26T16:30:23.244Z,10.02
2022-12-26T16:32:49.502Z,10.20
2022-12-26T16:35:22.374Z,9.62
2022-12-26T16:37:49.754Z,8.61
2022-12-26T16:40:20.574Z,9.39
2022-12-26T16:43:18.156Z,10.02
2022-12-26T16:45:46.975Z,9.76
2022-12-26T16:48:15.987Z,8.83
2022-12-26T16:50:57.900Z,9.86
2022-12-26T16:53:36.206Z,9.63
2022-12-26T16:56:41.551Z,9.85
2022-12-26T16:59:19.894Z,8.60
2022-12-26T17:01:56.650Z,9.42
2022-12-26T17:04:31.673Z,9.47
2022-12-26T17:07:06.306Z,9.18
2022-12-26T17:09:40.906Z,9.45
2022-12-26T17:12:19.413Z,9.07
2022-12-26T17:14:46.779Z,8.78
2022-12-26T17:17:27.366Z,7.64
2022-12-26T17:19:55.588Z,9.34
2022-12-26T17:22:32.187Z,9.66
2022-12-26T17:25:16.723Z,9.64
2022-12-26T17:27:44.542Z,9.60
2022-12-26T17:30:31.432Z,9.59
2022-12-26T17:33:02.978Z,9.33
2022-12-26T17:35:40.851Z,8.51
2022-12-26T17:38:17.726Z,9.34
2022-12-26T17:40:45.059Z,9.18
2022-12-26T17:43:11.089Z,8.82
2022-12-26T17:45:46.217Z,9.20
2022-12-26T17:48:12.938Z,9.38
2022-12-26T17:50:41.976Z,8.42
2022-12-26T17:53:28.909Z,8.80
2022-12-26T17:55:56.873Z,8.96
2022-12-26T17:58:23.195Z,8.24
2022-12-26T18:00:49.671Z,9.14
2022-12-26T18:03:16.154Z,8.94
2022-12-26T18:05:42.884Z,8.50
2022-12-26T18:08:31.888Z,8.82
2022-12-26T18:10:59.147Z,9.45
2022-12-26T18:13:25.661Z,9.28
2022-12-26T18:15:53.413Z,8.59
2022-12-26T18:18:29.842Z,9.43
2022-12-26T18:20:56.027Z,8.96
2022-12-26T18:23:22.368Z,9.15
2022-12-26T18:25:54.171Z,9.03
2022-12-26T18:28:20.647Z,8.77
2022-12-26T18:30:46.805Z,8.61
2022-12-26T18:33:13.121Z,8.97
2022-12-26T18:35:40.847Z,8.05
2022-12-26T18:38:07.664Z,9.20
2022-12-26T18:40:38.334Z,9.04
2022-12-26T18:43:05.816Z,8.22
2022-12-26T18:45:32.555Z,7.53
2022-12-26T18:47:59.513Z,8.24
2022-12-26T18:50:27.039Z,8.28
2022-12-26T18:52:54.074Z,6.74
2022-12-26T18:55:21.994Z,8.13
2022-12-26T18:57:48.290Z,4.18
2022-12-26T19:00:16.456Z,8.25
2022-12-26T19:02:43.215Z,8.24
2022-12-26T19:05:21.091Z,7.14
2022-12-26T19:07:49.324Z,8.29
2022-12-26T19:10:21.072Z,7.08
2022-12-26T19:12:47.679Z,8.66
2022-12-26T19:15:14.504Z,8.40
2022-12-26T19:17:42.881Z,7.65
2022-12-26T19:20:43.678Z,7.31
2022-12-26T19:23:10.738Z,8.55
2022-12-26T19:25:36.823Z,8.35
2022-12-26T19:28:02.929Z,7.23
2022-12-26T19:30:32.364Z,7.83
2022-12-26T19:33:03.068Z,7.39
2022-12-26T19:35:29.136Z,7.79
2022-12-26T19:37:55.204Z,7.60
2022-12-26T19:40:24.950Z,8.34
2022-12-26T19:42:51.964Z,7.74
2022-12-26T19:45:18.167Z,8.33
2022-12-26T19:47:44.321Z,7.42
2022-12-26T19:50:11.212Z,8.40
2022-12-26T19:52:38.207Z,8.20
2022-12-26T19:55:06.022Z,7.94
2022-12-26T19:57:32.212Z,8.08
2022-12-26T19:59:58.311Z,7.84
2022-12-26T20:02:24.611Z,7.64
2022-12-26T20:04:50.969Z,8.06
2022-12-26T20:07:17.079Z,8.24
2022-12-26T20:09:43.528Z,8.07
2022-12-26T20:12:09.701Z,7.36
2022-12-26T20:14:36.777Z,7.92
2022-12-26T20:17:05.522Z,7.68
2022-12-26T20:19:32.774Z,8.06
2022-12-26T20:21:58.849Z,7.86
2022-12-26T20:24:25.155Z,7.46
2022-12-26T20:26:51.321Z,7.22
2022-12-26T20:29:17.473Z,8.05
2022-12-26T20:31:43.930Z,8.14
2022-12-26T20:34:10.882Z,8.04
2022-12-26T20:36:37.346Z,7.80
2022-12-26T20:39:06.232Z,8.03
2022-12-26T20:41:32.797Z,8.30
2022-12-26T20:43:58.969Z,8.34
2022-12-26T20:46:27.811Z,8.37
2022-12-26T20:48:54.465Z,7.12
2022-12-26T20:51:23.312Z,8.15
2022-12-26T20:53:50.614Z,6.88
2022-12-26T20:56:17.299Z,7.81
2022-12-26T20:58:43.500Z,7.84
2022-12-26T21:01:22.630Z,7.18
2022-12-26T21:03:51.825Z,7.94
2022-12-26T21:06:20.776Z,7.32
2022-12-26T21:08:48.776Z,6.74
2022-12-26T21:11:14.809Z,7.92
2022-12-26T21:13:42.310Z,7.62
2022-12-26T21:16:11.607Z,7.62
2022-12-26T21:18:38.242Z,7.87
2022-12-26T21:21:11.036Z,7.72
2022-12-26T21:23:37.447Z,7.65
2022-12-26T21:26:04.823Z,7.80
2022-12-26T21:28:31.579Z,7.87
2022-12-26T21:30:58.159Z,7.89
2022-12-26T21:33:24.470Z,7.95
2022-12-26T21:35:52.561Z,7.16
2022-12-26T21:38:22.615Z,7.63
2022-12-26T21:40:49.491Z,7.84
2022-12-26T21:43:16.056Z,7.90
2022-12-26T21:45:42.330Z,7.77
2022-12-26T21:48:08.924Z,6.91
2022-12-26T21:50:35.488Z,7.51
2022-12-26T21:53:01.842Z,7.24
2022-12-26T21:55:30.268Z,7.66
2022-12-26T21:57:58.443Z,7.61
2022-12-26T22:00:24.692Z,7.66
2022-12-26T22:03:09.194Z,7.79
2022-12-26T22:05:39.106Z,7.69
2022-12-26T22:08:10.577Z,7.63
2022-12-26T22:10:56.207Z,7.30
2022-12-26T22:13:23.615Z,6.86
2022-12-26T22:16:06.140Z,6.27
2022-12-26T22:18:47.584Z,6.84
2022-12-26T22:21:18.895Z,7.30
2022-12-26T22:23:45.825Z,7.25
2022-12-26T22:26:14.108Z,6.95
2022-12-26T22:28:40.853Z,5.86
2022-12-26T22:31:07.554Z,6.83
2022-12-26T22:33:33.726Z,6.96
2022-12-26T22:36:04.868Z,6.94
2022-12-26T22:38:31.100Z,6.92
2022-12-26T22:40:58.544Z,6.46
2022-12-26T22:43:25.255Z,6.67
2022-12-26T22:45:52.393Z,6.81
2022-12-26T22:48:19.202Z,6.82
2022-12-26T22:50:46.778Z,6.40
2022-12-26T22:53:13.247Z,7.05
2022-12-26T22:55:47.458Z,6.98
2022-12-26T22:58:14.189Z,6.60
2022-12-26T23:00:41.206Z,6.55
2022-12-26T23:03:07.882Z,6.37
2022-12-26T23:05:34.914Z,6.22
2022-12-26T23:08:01.417Z,6.25
2022-12-26T23:10:28.173Z,6.38
2022-12-26T23:12:54.933Z,6.24
2022-12-26T23:15:23.986Z,6.23
2022-12-26T23:18:27.637Z,5.89
2022-12-26T23:21:13.047Z,6.21
2022-12-26T23:23:39.355Z,6.18
2022-12-26T23:26:05.534Z,5.91
2022-12-26T23:28:50.208Z,5.87
2022-12-26T23:31:16.523Z,5.51
2022-12-26T23:33:42.630Z,5.67
2022-12-26T23:36:08.813Z,5.52
2022-12-26T23:38:34.865Z,5.93
2022-12-26T23:41:00.973Z,5.92
2022-12-26T23:43:27.342Z,5.80
2022-12-26T23:45:53.465Z,5.81
2022-12-26T23:48:19.566Z,5.97
2022-12-26T23:50:45.631Z,5.64
2022-12-26T23:53:11.662Z,5.81
2022-12-26T23:55:40.343Z,5.30
2022-12-26T23:58:06.995Z,5.59
